Terminal Aerodrome Forecast
Issued by NWS

Home | Current Version | Previous Version | Text Only | Print | Product List | Glossary On
Versions: 1 2 3 4 5 6 7 8 9 10 11 12 13 14 15
000
FTUS43 KLSX 261700
TAFUIN
TAF
KUIN 261728Z 2618/2718 20013KT P6SM BKN250
     FM262000 18012KT P6SM SCT025 BKN250
      TEMPO 2622/2702 BKN025
     FM270200 18010KT P6SM BKN025
     FM270600 20010KT P6SM -RA SCT009 OVC015
     FM271400 27014KT 5SM -RA BR SCT009 OVC015=

USA.gov is the U.S. government's official web portal to all federal, state and local government web resources and services.